Adamsville, OH

6:17 PM EDT on April 25, 2015 (GMT -0400)
FranklinTownship TR 479 | | Change Station
CLOSE
Current Station
Personal Weather Station
Location: Coshocton, OH
Elevation: 866 ft
Nearby Weather Stations

Elev 866 ft 40.21 °N, 81.89 °W | Updated 14 seconds ago

Rain
Rain
45.9 °F
Feels Like 46 °F
N
0.0
Wind Variable Wind from NW
Gusts 0.0 mph

Today
High -- | Low -- °F
--% Chance of Precip.
Yesterday
High -- | Low -- °F
Precip. -- in
6:35 AM 8:16 PM
Waxing Crescent, 49% visible
Pressure 29.71 in
Visibility 7.0 miles
Clouds Overcast 8000 ft
Windchill 46 °F
Dew Point 45 °F
Humidity 97%
Rainfall 0.07 in
Snow Depth Not available.
UV 1.0 out of 12
Pollen 8.20 out of 12
Air Quality Not available.
Flu Activity Regional
METAR KZZV 252153Z AUTO 07004KT 7SM -RA OVC080 07/04 A2970 RMK AO2 SLP061 P0009 T00670044 TSNO

More Conditions Fewer Conditions

Pressure 29.71 in
Visibility 7.0 miles
Clouds Overcast 8000 ft
Windchill 46 °F
Dew Point 45 °F
Humidity 97%
Rainfall 0.07 in
Snow Depth Not available.
UV 1.0 out of 12
Pollen 8.20 out of 12
Air Quality Not available.
Flu Activity Regional
METAR KZZV 252153Z AUTO 07004KT 7SM -RA OVC080 07/04 A2970 RMK AO2 SLP061 P0009 T00670044 TSNO

More Conditions Fewer Conditions

10-Day Weather Forecast

Almanac

Astronomy

Apr. 25, 2015 Rise Set
Actual Time
Civil Twilight
Nautical Twilight
Astronomical Twilight
Moon
Length of Visible Light
Length of Day
Tomorrow will be .
, % of the Moon is Illuminated

Today's Extremes

State Highs State Lows

Community

WunderPhotos

Upload Photos

1,816,827 photos uploaded!

WunderBlogs® & News

Nearby

Air Quality

  Air Quality AQ Index Pollutant
Not available.

Snow Depth

Station Depth Elevation

Earthquake Activity

City Distance Mag. Time & Date
Minimum magnitude displayed is 2.5.

Coastal Water Temperatures

Place Temperature

Stations

Nearby Weather Stations

Station Location Temp. Windchill Dew Point Humidity Wind Precip. Elev Updated Type